sensor_id;sensor_type;location;lat;lon;timestamp;P1;durP1;ratioP1;P2;durP2;ratioP2
75928;SDS011;64606;44.062;2.986;2023-04-10T00:02:13;1.65;;;0.95;;
75928;SDS011;64606;44.062;2.986;2023-04-10T00:04:39;1.98;;;0.95;;
75928;SDS011;64606;44.062;2.986;2023-04-10T00:07:05;2.90;;;1.05;;
75928;SDS011;64606;44.062;2.986;2023-04-10T00:09:31;1.10;;;0.75;;
75928;SDS011;64606;44.062;2.986;2023-04-10T00:11:58;2.47;;;1.08;;
75928;SDS011;64606;44.062;2.986;2023-04-10T00:14:24;2.83;;;0.90;;
75928;SDS011;64606;44.062;2.986;2023-04-10T00:16:51;1.45;;;0.70;;
75928;SDS011;64606;44.062;2.986;2023-04-10T00:19:17;1.95;;;0.80;;
75928;SDS011;64606;44.062;2.986;2023-04-10T00:21:43;2.75;;;0.80;;
75928;SDS011;64606;44.062;2.986;2023-04-10T00:24:09;1.58;;;0.90;;
75928;SDS011;64606;44.062;2.986;2023-04-10T00:26:36;1.60;;;0.93;;
75928;SDS011;64606;44.062;2.986;2023-04-10T00:29:02;1.55;;;0.70;;
75928;SDS011;64606;44.062;2.986;2023-04-10T00:31:28;1.23;;;0.80;;
75928;SDS011;64606;44.062;2.986;2023-04-10T00:33:55;3.30;;;0.90;;
75928;SDS011;64606;44.062;2.986;2023-04-10T00:36:21;2.90;;;0.80;;
75928;SDS011;64606;44.062;2.986;2023-04-10T00:38:48;1.45;;;0.65;;
75928;SDS011;64606;44.062;2.986;2023-04-10T00:41:14;1.35;;;0.77;;
75928;SDS011;64606;44.062;2.986;2023-04-10T00:43:41;1.58;;;0.82;;
75928;SDS011;64606;44.062;2.986;2023-04-10T00:46:07;3.97;;;0.90;;
75928;SDS011;64606;44.062;2.986;2023-04-10T00:48:33;3.22;;;0.80;;
75928;SDS011;64606;44.062;2.986;2023-04-10T00:50:59;2.85;;;0.80;;
75928;SDS011;64606;44.062;2.986;2023-04-10T00:53:26;2.55;;;0.88;;
75928;SDS011;64606;44.062;2.986;2023-04-10T00:55:53;2.55;;;0.70;;
75928;SDS011;64606;44.062;2.986;2023-04-10T00:58:19;1.23;;;0.70;;
75928;SDS011;64606;44.062;2.986;2023-04-10T01:00:46;1.70;;;0.80;;
75928;SDS011;64606;44.062;2.986;2023-04-10T01:03:13;3.20;;;0.70;;
75928;SDS011;64606;44.062;2.986;2023-04-10T01:08:42;2.55;;;0.80;;
75928;SDS011;64606;44.062;2.986;2023-04-10T01:11:12;1.42;;;0.75;;
75928;SDS011;64606;44.062;2.986;2023-04-10T01:13:47;1.27;;;0.70;;
75928;SDS011;64606;44.062;2.986;2023-04-10T01:16:19;1.35;;;0.68;;
75928;SDS011;64606;44.062;2.986;2023-04-10T01:18:52;1.55;;;0.80;;
75928;SDS011;64606;44.062;2.986;2023-04-10T01:21:21;1.02;;;0.60;;
75928;SDS011;64606;44.062;2.986;2023-04-10T01:26:18;1.75;;;0.70;;
75928;SDS011;64606;44.062;2.986;2023-04-10T01:28:58;1.80;;;0.75;;
75928;SDS011;64606;44.062;2.986;2023-04-10T01:31:41;1.23;;;0.77;;
75928;SDS011;64606;44.062;2.986;2023-04-10T01:34:21;1.27;;;0.70;;
75928;SDS011;64606;44.062;2.986;2023-04-10T01:36:49;1.10;;;0.70;;
75928;SDS011;64606;44.062;2.986;2023-04-10T01:39:19;0.90;;;0.60;;
75928;SDS011;64606;44.062;2.986;2023-04-10T01:41:46;1.50;;;0.70;;
75928;SDS011;64606;44.062;2.986;2023-04-10T01:44:13;2.60;;;0.85;;
75928;SDS011;64606;44.062;2.986;2023-04-10T01:46:41;1.00;;;0.70;;
75928;SDS011;64606;44.062;2.986;2023-04-10T01:49:09;1.67;;;0.80;;
75928;SDS011;64606;44.062;2.986;2023-04-10T01:51:36;1.08;;;0.75;;
75928;SDS011;64606;44.062;2.986;2023-04-10T01:54:02;2.70;;;0.88;;
75928;SDS011;64606;44.062;2.986;2023-04-10T01:56:30;2.40;;;0.90;;
75928;SDS011;64606;44.062;2.986;2023-04-10T01:58:57;1.25;;;0.70;;
75928;SDS011;64606;44.062;2.986;2023-04-10T02:01:24;1.45;;;0.70;;
75928;SDS011;64606;44.062;2.986;2023-04-10T02:03:51;1.77;;;0.80;;
75928;SDS011;64606;44.062;2.986;2023-04-10T02:14:10;1.38;;;0.70;;
75928;SDS011;64606;44.062;2.986;2023-04-10T02:16:37;1.60;;;0.90;;
75928;SDS011;64606;44.062;2.986;2023-04-10T02:19:04;1.65;;;0.75;;
75928;SDS011;64606;44.062;2.986;2023-04-10T02:21:32;1.20;;;0.75;;
75928;SDS011;64606;44.062;2.986;2023-04-10T02:23:59;2.03;;;0.90;;
75928;SDS011;64606;44.062;2.986;2023-04-10T02:26:25;1.58;;;0.70;;
75928;SDS011;64606;44.062;2.986;2023-04-10T02:28:51;2.42;;;0.75;;
75928;SDS011;64606;44.062;2.986;2023-04-10T02:31:17;1.70;;;0.80;;
75928;SDS011;64606;44.062;2.986;2023-04-10T02:33:43;1.35;;;0.70;;
75928;SDS011;64606;44.062;2.986;2023-04-10T02:36:10;1.70;;;0.80;;
75928;SDS011;64606;44.062;2.986;2023-04-10T02:38:36;1.40;;;0.80;;
75928;SDS011;64606;44.062;2.986;2023-04-10T02:41:03;1.73;;;0.80;;
75928;SDS011;64606;44.062;2.986;2023-04-10T02:43:29;2.10;;;0.90;;
75928;SDS011;64606;44.062;2.986;2023-04-10T02:45:55;1.63;;;0.90;;
75928;SDS011;64606;44.062;2.986;2023-04-10T02:48:21;0.88;;;0.70;;
75928;SDS011;64606;44.062;2.986;2023-04-10T02:50:47;4.25;;;0.75;;
75928;SDS011;64606;44.062;2.986;2023-04-10T02:53:14;1.38;;;0.70;;
75928;SDS011;64606;44.062;2.986;2023-04-10T02:55:40;1.88;;;0.90;;
75928;SDS011;64606;44.062;2.986;2023-04-10T02:58:07;2.83;;;1.10;;
75928;SDS011;64606;44.062;2.986;2023-04-10T03:00:33;5.22;;;1.00;;
75928;SDS011;64606;44.062;2.986;2023-04-10T03:02:59;2.53;;;1.00;;
75928;SDS011;64606;44.062;2.986;2023-04-10T03:05:25;1.33;;;0.63;;
75928;SDS011;64606;44.062;2.986;2023-04-10T03:07:51;2.15;;;1.00;;
75928;SDS011;64606;44.062;2.986;2023-04-10T03:10:18;2.17;;;0.82;;
75928;SDS011;64606;44.062;2.986;2023-04-10T03:12:44;3.42;;;0.98;;
75928;SDS011;64606;44.062;2.986;2023-04-10T03:15:10;4.82;;;0.80;;
75928;SDS011;64606;44.062;2.986;2023-04-10T03:17:36;1.92;;;0.90;;
75928;SDS011;64606;44.062;2.986;2023-04-10T03:20:02;2.10;;;0.73;;
75928;SDS011;64606;44.062;2.986;2023-04-10T03:22:29;1.13;;;0.80;;
75928;SDS011;64606;44.062;2.986;2023-04-10T03:24:57;0.98;;;0.70;;
75928;SDS011;64606;44.062;2.986;2023-04-10T03:27:23;1.33;;;0.70;;
75928;SDS011;64606;44.062;2.986;2023-04-10T03:29:49;1.65;;;0.80;;
75928;SDS011;64606;44.062;2.986;2023-04-10T03:32:15;1.95;;;0.82;;
75928;SDS011;64606;44.062;2.986;2023-04-10T03:34:41;2.42;;;1.08;;
75928;SDS011;64606;44.062;2.986;2023-04-10T03:37:07;1.42;;;0.80;;
75928;SDS011;64606;44.062;2.986;2023-04-10T03:39:34;4.38;;;0.85;;
75928;SDS011;64606;44.062;2.986;2023-04-10T03:42:01;1.00;;;0.70;;
75928;SDS011;64606;44.062;2.986;2023-04-10T03:44:27;1.95;;;0.70;;
75928;SDS011;64606;44.062;2.986;2023-04-10T03:46:53;1.30;;;0.70;;
75928;SDS011;64606;44.062;2.986;2023-04-10T03:49:19;1.33;;;0.80;;
75928;SDS011;64606;44.062;2.986;2023-04-10T03:51:45;1.73;;;0.77;;
75928;SDS011;64606;44.062;2.986;2023-04-10T03:54:11;2.05;;;0.90;;
75928;SDS011;64606;44.062;2.986;2023-04-10T03:56:38;1.00;;;0.77;;
75928;SDS011;64606;44.062;2.986;2023-04-10T03:59:04;3.88;;;1.00;;
75928;SDS011;64606;44.062;2.986;2023-04-10T04:01:30;3.38;;;0.90;;
75928;SDS011;64606;44.062;2.986;2023-04-10T04:03:57;2.08;;;1.10;;
75928;SDS011;64606;44.062;2.986;2023-04-10T04:06:23;0.93;;;0.73;;
75928;SDS011;64606;44.062;2.986;2023-04-10T04:08:49;2.20;;;0.90;;
75928;SDS011;64606;44.062;2.986;2023-04-10T04:11:15;2.92;;;1.02;;
75928;SDS011;64606;44.062;2.986;2023-04-10T04:13:41;2.22;;;1.00;;
75928;SDS011;64606;44.062;2.986;2023-04-10T04:16:08;2.20;;;0.90;;
75928;SDS011;64606;44.062;2.986;2023-04-10T04:18:35;3.28;;;1.00;;
75928;SDS011;64606;44.062;2.986;2023-04-10T04:21:01;1.75;;;0.90;;
75928;SDS011;64606;44.062;2.986;2023-04-10T04:23:27;4.90;;;1.38;;
75928;SDS011;64606;44.062;2.986;2023-04-10T04:25:53;1.48;;;0.90;;
75928;SDS011;64606;44.062;2.986;2023-04-10T04:28:21;1.38;;;1.00;;
75928;SDS011;64606;44.062;2.986;2023-04-10T04:30:47;1.95;;;1.00;;
75928;SDS011;64606;44.062;2.986;2023-04-10T04:33:13;2.55;;;1.13;;
75928;SDS011;64606;44.062;2.986;2023-04-10T04:35:39;2.55;;;0.98;;
75928;SDS011;64606;44.062;2.986;2023-04-10T04:38:05;3.80;;;0.73;;
75928;SDS011;64606;44.062;2.986;2023-04-10T04:40:32;1.42;;;1.00;;
75928;SDS011;64606;44.062;2.986;2023-04-10T04:42:58;2.42;;;1.00;;
75928;SDS011;64606;44.062;2.986;2023-04-10T04:45:24;2.58;;;1.00;;
75928;SDS011;64606;44.062;2.986;2023-04-10T04:47:50;1.50;;;1.00;;
75928;SDS011;64606;44.062;2.986;2023-04-10T04:50:16;2.10;;;1.42;;
75928;SDS011;64606;44.062;2.986;2023-04-10T04:52:42;2.85;;;1.10;;
75928;SDS011;64606;44.062;2.986;2023-04-10T04:55:09;1.85;;;0.80;;
75928;SDS011;64606;44.062;2.986;2023-04-10T04:57:35;1.42;;;1.02;;
75928;SDS011;64606;44.062;2.986;2023-04-10T05:00:01;3.22;;;1.00;;
75928;SDS011;64606;44.062;2.986;2023-04-10T05:02:27;3.72;;;1.08;;
75928;SDS011;64606;44.062;2.986;2023-04-10T05:04:53;2.13;;;1.05;;
75928;SDS011;64606;44.062;2.986;2023-04-10T05:07:20;1.38;;;0.88;;
75928;SDS011;64606;44.062;2.986;2023-04-10T05:09:46;2.85;;;1.00;;
75928;SDS011;64606;44.062;2.986;2023-04-10T05:12:12;4.07;;;1.00;;
75928;SDS011;64606;44.062;2.986;2023-04-10T05:14:38;2.38;;;0.95;;
75928;SDS011;64606;44.062;2.986;2023-04-10T05:17:04;4.20;;;1.13;;
75928;SDS011;64606;44.062;2.986;2023-04-10T05:19:30;2.25;;;1.10;;
75928;SDS011;64606;44.062;2.986;2023-04-10T05:21:56;3.47;;;1.33;;
75928;SDS011;64606;44.062;2.986;2023-04-10T05:24:22;3.33;;;1.15;;
75928;SDS011;64606;44.062;2.986;2023-04-10T05:26:48;2.95;;;1.10;;
75928;SDS011;64606;44.062;2.986;2023-04-10T05:29:15;4.35;;;1.13;;
75928;SDS011;64606;44.062;2.986;2023-04-10T05:31:41;2.17;;;1.10;;
75928;SDS011;64606;44.062;2.986;2023-04-10T05:34:07;3.85;;;1.00;;
75928;SDS011;64606;44.062;2.986;2023-04-10T05:36:33;3.15;;;1.20;;
75928;SDS011;64606;44.062;2.986;2023-04-10T05:39:00;5.78;;;1.42;;
75928;SDS011;64606;44.062;2.986;2023-04-10T05:41:26;1.58;;;0.80;;
75928;SDS011;64606;44.062;2.986;2023-04-10T05:43:53;3.72;;;0.90;;
75928;SDS011;64606;44.062;2.986;2023-04-10T05:46:19;1.70;;;0.90;;
75928;SDS011;64606;44.062;2.986;2023-04-10T05:48:45;1.90;;;1.35;;
75928;SDS011;64606;44.062;2.986;2023-04-10T05:51:11;3.78;;;1.00;;
75928;SDS011;64606;44.062;2.986;2023-04-10T05:53:37;5.20;;;1.55;;
75928;SDS011;64606;44.062;2.986;2023-04-10T05:56:03;1.98;;;1.13;;
75928;SDS011;64606;44.062;2.986;2023-04-10T05:58:30;5.55;;;1.70;;
75928;SDS011;64606;44.062;2.986;2023-04-10T06:00:56;3.28;;;1.17;;
75928;SDS011;64606;44.062;2.986;2023-04-10T06:03:22;1.65;;;1.10;;
75928;SDS011;64606;44.062;2.986;2023-04-10T06:05:48;1.92;;;1.00;;
75928;SDS011;64606;44.062;2.986;2023-04-10T06:08:14;1.70;;;1.00;;
75928;SDS011;64606;44.062;2.986;2023-04-10T06:10:40;1.55;;;1.10;;
75928;SDS011;64606;44.062;2.986;2023-04-10T06:13:06;1.70;;;1.20;;
75928;SDS011;64606;44.062;2.986;2023-04-10T06:15:33;1.95;;;1.10;;
75928;SDS011;64606;44.062;2.986;2023-04-10T06:17:59;5.65;;;1.80;;
75928;SDS011;64606;44.062;2.986;2023-04-10T06:20:25;2.35;;;1.35;;
75928;SDS011;64606;44.062;2.986;2023-04-10T06:22:52;2.33;;;1.10;;
75928;SDS011;64606;44.062;2.986;2023-04-10T06:25:18;2.35;;;1.27;;
75928;SDS011;64606;44.062;2.986;2023-04-10T06:27:44;4.30;;;1.40;;
75928;SDS011;64606;44.062;2.986;2023-04-10T06:30:10;3.60;;;1.65;;
75928;SDS011;64606;44.062;2.986;2023-04-10T06:32:36;4.82;;;1.40;;
75928;SDS011;64606;44.062;2.986;2023-04-10T06:35:02;3.47;;;1.30;;
75928;SDS011;64606;44.062;2.986;2023-04-10T06:37:29;1.95;;;1.10;;
75928;SDS011;64606;44.062;2.986;2023-04-10T06:40:09;2.38;;;1.02;;
75928;SDS011;64606;44.062;2.986;2023-04-10T06:42:36;2.65;;;1.20;;
75928;SDS011;64606;44.062;2.986;2023-04-10T06:45:02;2.47;;;1.10;;
75928;SDS011;64606;44.062;2.986;2023-04-10T06:47:29;4.82;;;1.40;;
75928;SDS011;64606;44.062;2.986;2023-04-10T06:49:56;4.22;;;1.63;;
75928;SDS011;64606;44.062;2.986;2023-04-10T06:52:22;3.55;;;1.15;;
75928;SDS011;64606;44.062;2.986;2023-04-10T06:54:48;1.80;;;1.30;;
75928;SDS011;64606;44.062;2.986;2023-04-10T06:57:14;4.00;;;1.55;;
75928;SDS011;64606;44.062;2.986;2023-04-10T06:59:41;3.50;;;1.52;;
75928;SDS011;64606;44.062;2.986;2023-04-10T07:02:07;3.45;;;1.75;;
75928;SDS011;64606;44.062;2.986;2023-04-10T07:04:33;5.32;;;2.15;;
75928;SDS011;64606;44.062;2.986;2023-04-10T07:07:00;4.65;;;1.65;;
75928;SDS011;64606;44.062;2.986;2023-04-10T07:09:26;4.53;;;1.95;;
75928;SDS011;64606;44.062;2.986;2023-04-10T07:11:52;4.03;;;1.80;;
75928;SDS011;64606;44.062;2.986;2023-04-10T07:14:18;10.13;;;2.63;;
75928;SDS011;64606;44.062;2.986;2023-04-10T07:16:44;9.68;;;2.60;;
75928;SDS011;64606;44.062;2.986;2023-04-10T07:19:11;3.92;;;2.22;;
75928;SDS011;64606;44.062;2.986;2023-04-10T07:21:37;3.65;;;2.25;;
75928;SDS011;64606;44.062;2.986;2023-04-10T07:24:03;4.80;;;2.15;;
75928;SDS011;64606;44.062;2.986;2023-04-10T07:26:29;5.07;;;2.60;;
75928;SDS011;64606;44.062;2.986;2023-04-10T07:28:55;4.80;;;2.17;;
75928;SDS011;64606;44.062;2.986;2023-04-10T07:31:22;2.95;;;1.90;;
75928;SDS011;64606;44.062;2.986;2023-04-10T07:33:48;7.22;;;1.70;;
75928;SDS011;64606;44.062;2.986;2023-04-10T07:36:15;4.07;;;1.48;;
75928;SDS011;64606;44.062;2.986;2023-04-10T07:38:41;3.08;;;1.63;;
75928;SDS011;64606;44.062;2.986;2023-04-10T07:41:07;3.55;;;1.90;;
75928;SDS011;64606;44.062;2.986;2023-04-10T07:43:36;3.63;;;2.00;;
75928;SDS011;64606;44.062;2.986;2023-04-10T07:46:02;6.28;;;1.90;;
75928;SDS011;64606;44.062;2.986;2023-04-10T07:48:28;4.60;;;1.80;;
75928;SDS011;64606;44.062;2.986;2023-04-10T07:50:54;5.95;;;2.00;;
75928;SDS011;64606;44.062;2.986;2023-04-10T07:53:20;3.60;;;1.83;;
75928;SDS011;64606;44.062;2.986;2023-04-10T07:55:48;4.45;;;1.73;;
75928;SDS011;64606;44.062;2.986;2023-04-10T07:58:14;3.10;;;1.92;;
75928;SDS011;64606;44.062;2.986;2023-04-10T08:00:40;2.92;;;1.77;;
75928;SDS011;64606;44.062;2.986;2023-04-10T08:03:07;3.47;;;1.40;;
75928;SDS011;64606;44.062;2.986;2023-04-10T08:05:33;2.45;;;1.48;;
75928;SDS011;64606;44.062;2.986;2023-04-10T08:08:00;4.80;;;1.65;;
75928;SDS011;64606;44.062;2.986;2023-04-10T08:10:26;6.43;;;1.45;;
75928;SDS011;64606;44.062;2.986;2023-04-10T08:12:52;3.97;;;1.33;;
75928;SDS011;64606;44.062;2.986;2023-04-10T08:15:18;1.83;;;1.10;;
75928;SDS011;64606;44.062;2.986;2023-04-10T08:17:45;2.47;;;1.30;;
75928;SDS011;64606;44.062;2.986;2023-04-10T08:20:11;2.50;;;1.30;;
75928;SDS011;64606;44.062;2.986;2023-04-10T08:22:37;3.65;;;1.77;;
75928;SDS011;64606;44.062;2.986;2023-04-10T08:25:03;6.55;;;1.58;;
75928;SDS011;64606;44.062;2.986;2023-04-10T08:27:29;4.90;;;1.35;;
75928;SDS011;64606;44.062;2.986;2023-04-10T08:29:56;5.63;;;1.80;;
75928;SDS011;64606;44.062;2.986;2023-04-10T08:32:22;5.40;;;1.60;;
75928;SDS011;64606;44.062;2.986;2023-04-10T08:34:50;3.78;;;1.27;;
75928;SDS011;64606;44.062;2.986;2023-04-10T08:37:16;1.90;;;1.30;;
75928;SDS011;64606;44.062;2.986;2023-04-10T08:39:43;4.57;;;1.27;;
75928;SDS011;64606;44.062;2.986;2023-04-10T08:42:09;1.83;;;1.08;;
75928;SDS011;64606;44.062;2.986;2023-04-10T08:44:36;1.60;;;1.40;;
75928;SDS011;64606;44.062;2.986;2023-04-10T08:47:03;4.80;;;1.20;;
75928;SDS011;64606;44.062;2.986;2023-04-10T08:52:03;4.55;;;2.17;;
75928;SDS011;64606;44.062;2.986;2023-04-10T08:54:32;4.53;;;1.80;;
75928;SDS011;64606;44.062;2.986;2023-04-10T08:56:59;5.40;;;1.90;;
75928;SDS011;64606;44.062;2.986;2023-04-10T08:59:29;4.57;;;1.60;;
75928;SDS011;64606;44.062;2.986;2023-04-10T09:01:55;6.28;;;3.05;;
75928;SDS011;64606;44.062;2.986;2023-04-10T09:04:25;3.22;;;1.50;;
75928;SDS011;64606;44.062;2.986;2023-04-10T09:06:51;4.18;;;1.63;;
75928;SDS011;64606;44.062;2.986;2023-04-10T09:09:18;4.90;;;1.42;;
75928;SDS011;64606;44.062;2.986;2023-04-10T09:14:19;6.13;;;3.15;;
75928;SDS011;64606;44.062;2.986;2023-04-10T09:16:46;17.77;;;7.53;;
75928;SDS011;64606;44.062;2.986;2023-04-10T09:19:12;3.47;;;2.10;;
75928;SDS011;64606;44.062;2.986;2023-04-10T09:21:38;2.83;;;1.40;;
75928;SDS011;64606;44.062;2.986;2023-04-10T09:24:04;3.90;;;1.10;;
75928;SDS011;64606;44.062;2.986;2023-04-10T09:26:31;3.70;;;1.00;;
75928;SDS011;64606;44.062;2.986;2023-04-10T09:29:04;2.20;;;1.23;;
75928;SDS011;64606;44.062;2.986;2023-04-10T09:31:34;1.48;;;1.13;;
75928;SDS011;64606;44.062;2.986;2023-04-10T09:36:33;3.13;;;0.93;;
75928;SDS011;64606;44.062;2.986;2023-04-10T09:38:59;1.60;;;1.05;;
75928;SDS011;64606;44.062;2.986;2023-04-10T09:41:25;4.32;;;1.15;;
75928;SDS011;64606;44.062;2.986;2023-04-10T09:44:13;4.80;;;1.30;;
75928;SDS011;64606;44.062;2.986;2023-04-10T09:46:38;5.32;;;1.30;;
75928;SDS011;64606;44.062;2.986;2023-04-10T09:49:04;3.35;;;1.30;;
75928;SDS011;64606;44.062;2.986;2023-04-10T09:51:31;6.75;;;1.40;;
75928;SDS011;64606;44.062;2.986;2023-04-10T09:54:01;3.90;;;1.20;;
75928;SDS011;64606;44.062;2.986;2023-04-10T09:56:28;4.05;;;1.10;;
75928;SDS011;64606;44.062;2.986;2023-04-10T09:58:58;2.13;;;1.30;;
75928;SDS011;64606;44.062;2.986;2023-04-10T10:01:25;2.55;;;1.42;;
75928;SDS011;64606;44.062;2.986;2023-04-10T10:03:53;6.72;;;1.38;;
75928;SDS011;64606;44.062;2.986;2023-04-10T10:06:20;4.30;;;1.58;;
75928;SDS011;64606;44.062;2.986;2023-04-10T10:08:47;3.15;;;1.50;;
75928;SDS011;64606;44.062;2.986;2023-04-10T10:11:14;6.00;;;1.40;;
75928;SDS011;64606;44.062;2.986;2023-04-10T10:16:13;3.88;;;1.20;;
75928;SDS011;64606;44.062;2.986;2023-04-10T10:18:43;2.17;;;1.00;;
75928;SDS011;64606;44.062;2.986;2023-04-10T10:21:10;2.65;;;1.30;;
75928;SDS011;64606;44.062;2.986;2023-04-10T10:23:37;8.25;;;1.30;;
75928;SDS011;64606;44.062;2.986;2023-04-10T10:26:05;2.47;;;1.38;;
75928;SDS011;64606;44.062;2.986;2023-04-10T10:28:31;7.07;;;1.48;;
75928;SDS011;64606;44.062;2.986;2023-04-10T10:30:58;2.63;;;1.30;;
75928;SDS011;64606;44.062;2.986;2023-04-10T10:33:25;2.38;;;1.10;;
75928;SDS011;64606;44.062;2.986;2023-04-10T10:35:52;6.53;;;1.17;;
75928;SDS011;64606;44.062;2.986;2023-04-10T10:38:19;5.57;;;1.63;;
75928;SDS011;64606;44.062;2.986;2023-04-10T10:41:28;3.72;;;1.48;;
75928;SDS011;64606;44.062;2.986;2023-04-10T10:46:37;1.65;;;1.10;;
75928;SDS011;64606;44.062;2.986;2023-04-10T10:49:05;9.60;;;1.15;;
75928;SDS011;64606;44.062;2.986;2023-04-10T10:51:44;6.15;;;0.80;;
75928;SDS011;64606;44.062;2.986;2023-04-10T10:54:27;3.13;;;1.02;;
75928;SDS011;64606;44.062;2.986;2023-04-10T10:56:53;4.60;;;1.00;;
75928;SDS011;64606;44.062;2.986;2023-04-10T11:02:24;2.17;;;1.00;;
75928;SDS011;64606;44.062;2.986;2023-04-10T11:04:51;2.03;;;0.80;;
75928;SDS011;64606;44.062;2.986;2023-04-10T11:07:17;3.65;;;0.80;;
75928;SDS011;64606;44.062;2.986;2023-04-10T11:09:50;1.70;;;0.82;;
75928;SDS011;64606;44.062;2.986;2023-04-10T11:12:23;0.80;;;0.70;;
75928;SDS011;64606;44.062;2.986;2023-04-10T11:15:00;1.15;;;0.70;;
75928;SDS011;64606;44.062;2.986;2023-04-10T11:17:48;1.42;;;0.80;;
75928;SDS011;64606;44.062;2.986;2023-04-10T11:20:15;1.67;;;0.80;;
75928;SDS011;64606;44.062;2.986;2023-04-10T11:28:55;1.08;;;0.60;;
75928;SDS011;64606;44.062;2.986;2023-04-10T11:31:15;1.25;;;0.75;;
75928;SDS011;64606;44.062;2.986;2023-04-10T11:33:44;0.90;;;0.70;;
75928;SDS011;64606;44.062;2.986;2023-04-10T11:36:12;2.33;;;0.95;;
75928;SDS011;64606;44.062;2.986;2023-04-10T11:38:40;1.60;;;0.80;;
75928;SDS011;64606;44.062;2.986;2023-04-10T11:41:06;3.35;;;0.90;;
75928;SDS011;64606;44.062;2.986;2023-04-10T11:43:32;1.50;;;0.80;;
75928;SDS011;64606;44.062;2.986;2023-04-10T11:46:00;2.45;;;0.70;;
75928;SDS011;64606;44.062;2.986;2023-04-10T11:48:26;3.03;;;0.80;;
75928;SDS011;64606;44.062;2.986;2023-04-10T11:50:53;2.08;;;1.00;;
75928;SDS011;64606;44.062;2.986;2023-04-10T11:53:20;2.05;;;0.90;;
75928;SDS011;64606;44.062;2.986;2023-04-10T11:55:46;3.20;;;1.27;;
75928;SDS011;64606;44.062;2.986;2023-04-10T11:58:22;2.15;;;0.80;;
75928;SDS011;64606;44.062;2.986;2023-04-10T12:00:55;2.75;;;0.80;;
75928;SDS011;64606;44.062;2.986;2023-04-10T12:03:34;3.13;;;0.90;;
75928;SDS011;64606;44.062;2.986;2023-04-10T12:06:00;2.17;;;0.90;;
75928;SDS011;64606;44.062;2.986;2023-04-10T12:08:30;1.88;;;0.90;;
75928;SDS011;64606;44.062;2.986;2023-04-10T12:10:57;2.17;;;1.10;;
75928;SDS011;64606;44.062;2.986;2023-04-10T12:13:27;1.13;;;0.90;;
75928;SDS011;64606;44.062;2.986;2023-04-10T12:15:53;2.17;;;0.77;;
75928;SDS011;64606;44.062;2.986;2023-04-10T12:18:22;1.92;;;1.10;;
75928;SDS011;64606;44.062;2.986;2023-04-10T12:20:48;1.52;;;0.85;;
75928;SDS011;64606;44.062;2.986;2023-04-10T12:23:19;1.80;;;0.90;;
75928;SDS011;64606;44.062;2.986;2023-04-10T12:25:45;3.45;;;0.90;;
75928;SDS011;64606;44.062;2.986;2023-04-10T12:28:21;1.75;;;0.82;;
75928;SDS011;64606;44.062;2.986;2023-04-10T12:30:48;1.55;;;1.00;;
75928;SDS011;64606;44.062;2.986;2023-04-10T12:33:23;0.77;;;0.77;;
75928;SDS011;64606;44.062;2.986;2023-04-10T12:35:50;1.88;;;0.82;;
75928;SDS011;64606;44.062;2.986;2023-04-10T12:41:01;5.07;;;0.80;;
75928;SDS011;64606;44.062;2.986;2023-04-10T12:43:29;1.85;;;0.98;;
75928;SDS011;64606;44.062;2.986;2023-04-10T12:45:55;1.52;;;0.73;;
75928;SDS011;64606;44.062;2.986;2023-04-10T12:48:22;1.48;;;0.63;;
75928;SDS011;64606;44.062;2.986;2023-04-10T12:50:48;1.85;;;0.70;;
75928;SDS011;64606;44.062;2.986;2023-04-10T12:53:14;1.08;;;0.80;;
75928;SDS011;64606;44.062;2.986;2023-04-10T12:55:41;1.70;;;0.80;;
75928;SDS011;64606;44.062;2.986;2023-04-10T12:58:22;1.42;;;0.80;;
75928;SDS011;64606;44.062;2.986;2023-04-10T13:00:52;1.70;;;0.90;;
75928;SDS011;64606;44.062;2.986;2023-04-10T13:03:19;1.58;;;0.90;;
75928;SDS011;64606;44.062;2.986;2023-04-10T13:05:45;2.53;;;0.80;;
75928;SDS011;64606;44.062;2.986;2023-04-10T13:08:11;2.72;;;0.80;;
75928;SDS011;64606;44.062;2.986;2023-04-10T13:10:38;6.40;;;1.00;;
75928;SDS011;64606;44.062;2.986;2023-04-10T13:13:06;2.85;;;0.90;;
75928;SDS011;64606;44.062;2.986;2023-04-10T13:15:32;2.42;;;0.77;;
75928;SDS011;64606;44.062;2.986;2023-04-10T13:17:59;5.35;;;0.80;;
75928;SDS011;64606;44.062;2.986;2023-04-10T13:20:25;1.83;;;0.80;;
75928;SDS011;64606;44.062;2.986;2023-04-10T13:22:52;3.75;;;1.00;;
75928;SDS011;64606;44.062;2.986;2023-04-10T13:25:18;3.50;;;1.17;;
75928;SDS011;64606;44.062;2.986;2023-04-10T13:27:44;1.83;;;1.00;;
75928;SDS011;64606;44.062;2.986;2023-04-10T13:30:10;4.78;;;0.82;;
75928;SDS011;64606;44.062;2.986;2023-04-10T13:32:36;2.30;;;0.90;;
75928;SDS011;64606;44.062;2.986;2023-04-10T13:35:02;8.02;;;1.35;;
75928;SDS011;64606;44.062;2.986;2023-04-10T13:37:29;4.40;;;1.02;;
75928;SDS011;64606;44.062;2.986;2023-04-10T13:39:55;2.55;;;1.00;;
75928;SDS011;64606;44.062;2.986;2023-04-10T13:42:21;3.17;;;1.08;;
75928;SDS011;64606;44.062;2.986;2023-04-10T13:44:47;2.03;;;0.95;;
75928;SDS011;64606;44.062;2.986;2023-04-10T13:47:13;1.60;;;0.90;;
75928;SDS011;64606;44.062;2.986;2023-04-10T13:49:39;3.05;;;1.10;;
75928;SDS011;64606;44.062;2.986;2023-04-10T13:52:06;3.10;;;1.02;;
75928;SDS011;64606;44.062;2.986;2023-04-10T13:54:32;3.75;;;1.10;;
75928;SDS011;64606;44.062;2.986;2023-04-10T13:56:58;2.58;;;1.20;;
75928;SDS011;64606;44.062;2.986;2023-04-10T13:59:24;3.58;;;0.98;;
75928;SDS011;64606;44.062;2.986;2023-04-10T14:01:50;3.22;;;1.23;;
75928;SDS011;64606;44.062;2.986;2023-04-10T14:04:17;1.95;;;1.10;;
75928;SDS011;64606;44.062;2.986;2023-04-10T14:06:43;4.57;;;1.50;;
75928;SDS011;64606;44.062;2.986;2023-04-10T14:09:09;3.05;;;1.10;;
75928;SDS011;64606;44.062;2.986;2023-04-10T14:11:35;2.75;;;1.27;;
75928;SDS011;64606;44.062;2.986;2023-04-10T14:14:01;2.03;;;1.30;;
75928;SDS011;64606;44.062;2.986;2023-04-10T14:16:27;1.95;;;1.40;;
75928;SDS011;64606;44.062;2.986;2023-04-10T14:18:54;4.85;;;1.25;;
75928;SDS011;64606;44.062;2.986;2023-04-10T14:21:20;2.47;;;1.23;;
75928;SDS011;64606;44.062;2.986;2023-04-10T14:23:46;3.38;;;1.48;;
75928;SDS011;64606;44.062;2.986;2023-04-10T14:26:12;2.10;;;1.40;;
75928;SDS011;64606;44.062;2.986;2023-04-10T14:28:38;3.50;;;1.25;;
75928;SDS011;64606;44.062;2.986;2023-04-10T14:31:05;3.60;;;1.20;;
75928;SDS011;64606;44.062;2.986;2023-04-10T14:33:32;3.25;;;1.50;;
75928;SDS011;64606;44.062;2.986;2023-04-10T14:35:59;1.80;;;1.25;;
75928;SDS011;64606;44.062;2.986;2023-04-10T14:38:25;1.80;;;1.35;;
75928;SDS011;64606;44.062;2.986;2023-04-10T14:40:51;1.85;;;1.42;;
75928;SDS011;64606;44.062;2.986;2023-04-10T14:43:17;2.47;;;1.50;;
75928;SDS011;64606;44.062;2.986;2023-04-10T14:45:44;4.38;;;1.40;;
75928;SDS011;64606;44.062;2.986;2023-04-10T14:48:10;4.40;;;1.40;;
75928;SDS011;64606;44.062;2.986;2023-04-10T14:50:36;4.93;;;1.52;;
75928;SDS011;64606;44.062;2.986;2023-04-10T14:53:03;3.25;;;1.23;;
75928;SDS011;64606;44.062;2.986;2023-04-10T14:55:30;6.07;;;2.67;;
75928;SDS011;64606;44.062;2.986;2023-04-10T14:57:56;2.53;;;1.88;;
75928;SDS011;64606;44.062;2.986;2023-04-10T15:00:22;2.05;;;1.65;;
75928;SDS011;64606;44.062;2.986;2023-04-10T15:02:49;3.50;;;1.60;;
75928;SDS011;64606;44.062;2.986;2023-04-10T15:05:15;4.65;;;1.65;;
75928;SDS011;64606;44.062;2.986;2023-04-10T15:07:41;4.18;;;1.55;;
75928;SDS011;64606;44.062;2.986;2023-04-10T15:10:07;5.15;;;1.63;;
75928;SDS011;64606;44.062;2.986;2023-04-10T15:12:37;5.63;;;2.40;;
75928;SDS011;64606;44.062;2.986;2023-04-10T15:15:03;4.28;;;2.70;;
75928;SDS011;64606;44.062;2.986;2023-04-10T15:17:29;5.22;;;3.47;;
75928;SDS011;64606;44.062;2.986;2023-04-10T15:19:55;4.60;;;2.38;;
75928;SDS011;64606;44.062;2.986;2023-04-10T15:22:21;4.72;;;3.08;;
75928;SDS011;64606;44.062;2.986;2023-04-10T15:24:47;9.65;;;3.50;;
75928;SDS011;64606;44.062;2.986;2023-04-10T15:27:13;6.78;;;2.97;;